Time,TemperatureF,DewpointF,PressureIn,WindDirection,WindDirectionDegrees,WindSpeedMPH,WindSpeedGustMPH,Humidity,HourlyPrecipIn,Conditions,Clouds,dailyrainin,SoftwareType,DateUTC
2013-07-13 00:00:00,66.0,56.3,30.04,SE,135,2.0,7.0,71,0.00,,BKN150,0.00,VWS V14.01,2013-07-13 05:00:00,
2013-07-13 00:11:00,65.5,56.0,30.03,ESE,117,3.0,7.0,72,0.00,,,0.00,weatherlink.com 1.10,2013-07-13 05:11:00,
2013-07-13 00:26:00,64.5,56.0,30.04,SE,144,2.0,7.0,74,0.00,,,0.00,weatherlink.com 1.10,2013-07-13 05:26:00,
2013-07-13 00:30:00,64.3,56.2,30.04,SE,135,3.0,8.0,75,0.00,,BKN150,0.00,VWS V14.01,2013-07-13 05:30:00,
2013-07-13 00:41:00,63.7,56.0,30.04,SE,126,2.0,6.0,77,0.00,,,0.00,weatherlink.com 1.10,2013-07-13 05:41:00,
2013-07-13 00:56:00,63.2,56.0,30.04,SE,133,3.0,6.0,78,0.00,,,0.00,weatherlink.com 1.10,2013-07-13 05:56:00,
2013-07-13 01:00:00,63.2,56.2,30.03,SE,135,3.0,7.0,78,0.00,,BKN150,0.00,VWS V14.01,2013-07-13 06:00:00,
2013-07-13 01:11:00,63.4,56.0,30.04,SSE,148,3.0,6.0,77,0.00,,,0.00,weatherlink.com 1.10,2013-07-13 06:11:00,
2013-07-13 01:26:00,63.2,56.0,30.04,ESE,119,2.0,6.0,78,0.00,,,0.00,weatherlink.com 1.10,2013-07-13 06:26:00,
2013-07-13 01:30:00,63.1,56.1,30.04,SE,135,3.0,7.0,78,0.00,,BKN150,0.00,VWS V14.01,2013-07-13 06:30:00,
2013-07-13 01:41:00,63.0,56.0,30.05,SSE,156,2.0,5.0,78,0.00,,,0.00,weatherlink.com 1.10,2013-07-13 06:41:00,
2013-07-13 01:56:00,62.4,56.0,30.06,ESE,117,1.0,4.0,79,0.00,,,0.00,weatherlink.com 1.10,2013-07-13 06:56:00,
2013-07-13 02:00:00,62.3,55.7,30.06,SE,135,2.0,5.0,79,0.00,,BKN150,0.00,VWS V14.01,2013-07-13 07:00:00,
2013-07-13 02:11:00,62.0,56.0,30.06,SE,126,0.0,2.0,80,0.00,,,0.00,weatherlink.com 1.10,2013-07-13 07:11:00,
2013-07-13 02:26:00,60.5,56.0,30.06,ESE,123,0.0,1.0,84,0.00,,,0.00,weatherlink.com 1.10,2013-07-13 07:26:00,
2013-07-13 02:30:00,60.3,55.8,30.06,ESE,112,0.0,2.0,85,0.00,,BKN150,0.00,VWS V14.01,2013-07-13 07:30:00,
2013-07-13 02:41:00,60.0,56.0,30.06,ESE,115,0.0,2.0,85,0.00,,,0.00,weatherlink.com 1.10,2013-07-13 07:41:00,
2013-07-13 02:56:00,59.8,55.0,30.06,SSE,148,0.0,1.0,85,0.00,,,0.00,weatherlink.com 1.10,2013-07-13 07:56:00,
2013-07-13 03:00:00,59.7,55.2,30.06,ESE,112,0.0,2.0,85,0.00,,BKN150,0.00,VWS V14.01,2013-07-13 08:00:00,
2013-07-13 03:12:00,59.6,56.0,30.06,ESE,113,0.0,1.0,86,0.00,,,0.00,weatherlink.com 1.10,2013-07-13 08:12:00,
2013-07-13 03:27:00,60.4,56.0,30.06,SE,136,2.0,3.0,85,0.00,,,0.00,weatherlink.com 1.10,2013-07-13 08:27:00,
2013-07-13 03:30:00,60.7,55.8,30.06,SE,135,1.0,3.0,84,0.00,,BKN150,0.00,VWS V14.01,2013-07-13 08:30:00,
2013-07-13 03:42:00,61.2,56.0,30.06,SSE,152,2.0,7.0,83,0.00,,,0.00,weatherlink.com 1.10,2013-07-13 08:42:00,
2013-07-13 03:57:00,60.9,56.0,30.05,SE,132,2.0,5.0,83,0.00,,,0.00,weatherlink.com 1.10,2013-07-13 08:57:00,
2013-07-13 04:00:00,60.9,56.0,30.05,SE,135,3.0,7.0,84,0.00,,BKN150,0.00,VWS V14.01,2013-07-13 09:00:00,
2013-07-13 04:12:00,60.6,56.0,30.05,SE,138,2.0,5.0,84,0.00,,,0.00,weatherlink.com 1.10,2013-07-13 09:12:00,
2013-07-13 04:27:00,60.2,56.0,30.06,SSE,153,1.0,3.0,85,0.00,,,0.00,weatherlink.com 1.10,2013-07-13 09:27:00,
2013-07-13 04:30:00,60.2,56.0,30.06,SE,135,2.0,5.0,86,0.00,,BKN150,0.00,VWS V14.01,2013-07-13 09:30:00,
2013-07-13 04:42:00,60.2,56.0,30.06,ESE,123,1.0,4.0,86,0.00,,,0.00,weatherlink.com 1.10,2013-07-13 09:42:00,
2013-07-13 04:57:00,60.4,56.0,30.07,East,94,3.0,4.0,86,0.00,,,0.00,weatherlink.com 1.10,2013-07-13 09:57:00,
2013-07-13 05:00:00,60.3,56.1,30.07,SE,135,1.0,5.0,86,0.00,,BKN150,0.00,VWS V14.01,2013-07-13 10:00:00,
2013-07-13 05:12:00,60.0,56.0,30.06,SE,136,3.0,5.0,87,0.00,,,0.00,weatherlink.com 1.10,2013-07-13 10:12:00,
2013-07-13 05:27:00,59.8,56.0,30.06,SE,133,2.0,5.0,88,0.00,,,0.00,weatherlink.com 1.10,2013-07-13 10:27:00,
2013-07-13 05:30:00,59.6,56.0,30.06,SE,135,2.0,5.0,88,0.00,,BKN150,0.00,VWS V14.01,2013-07-13 10:30:00,
2013-07-13 05:42:00,59.4,56.0,30.06,SE,137,2.0,5.0,89,0.00,,,0.00,weatherlink.com 1.10,2013-07-13 10:42:00,
2013-07-13 05:57:00,60.1,57.0,30.07,SE,139,0.0,4.0,88,0.00,,,0.00,weatherlink.com 1.10,2013-07-13 10:57:00,
2013-07-13 06:00:00,60.3,56.7,30.07,SE,135,2.0,5.0,88,0.00,,BKN150,0.00,VWS V14.01,2013-07-13 11:00:00,
2013-07-13 06:12:00,61.4,58.0,30.07,ESE,110,1.0,4.0,88,0.00,,,0.00,weatherlink.com 1.10,2013-07-13 11:12:00,
2013-07-13 06:27:00,62.9,59.0,30.07,SSE,156,4.0,6.0,86,0.00,,,0.00,weatherlink.com 1.10,2013-07-13 11:27:00,
2013-07-13 06:30:00,63.0,58.4,30.08,SE,135,2.0,6.0,85,0.00,,BKN150,0.00,VWS V14.01,2013-07-13 11:30:00,
2013-07-13 06:42:00,63.7,59.0,30.08,SE,129,3.0,6.0,85,0.00,,,0.00,weatherlink.com 1.10,2013-07-13 11:42:00,
2013-07-13 06:57:00,64.5,60.0,30.09,ESE,121,1.0,5.0,84,0.00,,,0.00,weatherlink.com 1.10,2013-07-13 11:57:00,
2013-07-13 07:00:00,64.9,59.6,30.10,SE,135,2.0,6.0,83,0.00,,BKN150,0.00,VWS V14.01,2013-07-13 12:00:00,
2013-07-13 07:12:00,66.6,60.0,30.10,SSE,153,1.0,2.0,80,0.00,,,0.00,weatherlink.com 1.10,2013-07-13 12:12:00,
2013-07-13 07:27:00,67.0,61.0,30.08,ESE,118,2.0,7.0,81,0.00,,,0.00,weatherlink.com 1.10,2013-07-13 12:27:00,
2013-07-13 07:30:00,67.1,61.4,30.08,SSE,158,2.0,7.0,82,0.00,,BKN150,0.00,VWS V14.01,2013-07-13 12:30:00,
2013-07-13 07:42:00,68.2,62.0,30.08,SE,139,3.0,5.0,81,0.00,,,0.00,weatherlink.com 1.10,2013-07-13 12:42:00,
2013-07-13 07:57:00,69.9,63.0,30.09,SSE,160,2.0,5.0,78,0.00,,,0.00,weatherlink.com 1.10,2013-07-13 12:57:00,
2013-07-13 08:00:00,70.1,62.2,30.09,SE,135,2.0,6.0,76,0.00,,BKN150,0.00,VWS V14.01,2013-07-13 13:00:00,
2013-07-13 08:12:00,71.2,63.0,30.08,SE,144,4.0,5.0,76,0.00,,,0.00,weatherlink.com 1.10,2013-07-13 13:12:00,
2013-07-13 08:27:00,72.2,63.0,30.09,SSE,160,1.0,6.0,73,0.00,,,0.00,weatherlink.com 1.10,2013-07-13 13:27:00,
2013-07-13 08:30:00,72.6,63.5,30.09,SE,135,2.0,7.0,73,0.00,,BKN150,0.00,VWS V14.01,2013-07-13 13:30:00,
2013-07-13 08:46:00,73.0,62.0,30.10,SSE,168,2.0,6.0,69,0.00,,,0.00,weatherlink.com 1.10,2013-07-13 13:46:00,
2013-07-13 08:57:00,74.2,63.0,30.10,SE,146,1.0,4.0,68,0.00,,,0.00,weatherlink.com 1.10,2013-07-13 13:57:00,
2013-07-13 09:23:00,75.5,62.0,30.10,SE,135,3.0,5.0,64,0.00,,,0.00,weatherlink.com 1.10,2013-07-13 14:23:00,
2013-07-13 09:28:00,75.6,62.1,30.10,ESE,110,2.0,5.0,63,0.00,,BKN250,0.00,VWS V14.01,2013-07-13 14:28:00,
2013-07-13 09:33:00,75.8,61.4,30.09,SW,229,2.0,5.0,61,0.00,,BKN250,0.00,VWS V14.01,2013-07-13 14:33:00,
2013-07-13 09:38:00,76.3,62.3,30.09,SSW,205,6.0,6.0,62,0.00,,BKN250,0.00,VWS V14.01,2013-07-13 14:38:00,
2013-07-13 09:43:00,76.0,61.6,30.09,SSW,199,4.0,6.0,61,0.00,,BKN250,0.00,VWS V14.01,2013-07-13 14:43:00,
2013-07-13 09:48:00,76.2,60.4,30.09,SE,132,3.0,6.0,58,0.00,,BKN250,0.00,VWS V14.01,2013-07-13 14:48:00,
2013-07-13 09:53:00,76.2,59.4,30.09,ESE,112,4.0,7.0,56,0.00,,BKN250,0.00,VWS V14.01,2013-07-13 14:53:00,
2013-07-13 09:58:00,76.2,59.9,30.09,ESE,119,4.0,7.0,57,0.00,,BKN250,0.00,VWS V14.01,2013-07-13 14:58:00,
2013-07-13 10:03:00,76.7,61.3,30.09,SSW,213,1.0,6.0,59,0.00,,BKN250,0.00,VWS V14.01,2013-07-13 15:03:00,
2013-07-13 10:08:00,76.8,58.9,30.09,SSE,148,4.0,8.0,54,0.00,,BKN250,0.00,VWS V14.01,2013-07-13 15:08:00,
2013-07-13 10:13:00,76.9,60.0,30.09,SE,141,4.0,8.0,56,0.00,,BKN250,0.00,VWS V14.01,2013-07-13 15:13:00,
2013-07-13 10:18:00,77.2,60.3,30.10,SSE,159,4.0,8.0,56,0.00,,BKN250,0.00,VWS V14.01,2013-07-13 15:18:00,
2013-07-13 10:24:00,77.4,59.0,30.10,SSE,168,7.0,8.0,53,0.00,,BKN250,0.00,VWS V14.01,2013-07-13 15:24:00,
2013-07-13 10:29:00,77.6,59.1,30.10,SSE,155,3.0,8.0,53,0.00,,BKN250,0.00,VWS V14.01,2013-07-13 15:29:00,
2013-07-13 10:34:00,78.0,59.5,30.10,SSW,200,4.0,6.0,53,0.00,,BKN250,0.00,VWS V14.01,2013-07-13 15:34:00,
2013-07-13 10:39:00,77.9,57.8,30.09,South,180,4.0,7.0,50,0.00,,BKN250,0.00,VWS V14.01,2013-07-13 15:39:00,
2013-07-13 10:44:00,77.7,58.7,30.09,South,178,2.0,7.0,52,0.00,,BKN250,0.00,VWS V14.01,2013-07-13 15:44:00,
2013-07-13 10:49:00,78.3,58.7,30.09,SSW,213,3.0,7.0,51,0.00,,BKN250,0.00,VWS V14.01,2013-07-13 15:49:00,
2013-07-13 10:54:00,78.5,58.3,30.09,SW,229,6.0,7.0,50,0.00,,BKN250,0.00,VWS V14.01,2013-07-13 15:54:00,
2013-07-13 11:00:00,78.5,58.9,30.09,SSW,202,3.0,7.0,51,0.00,,BKN250,0.00,VWS V14.01,2013-07-13 16:00:00,
2013-07-13 11:07:00,78.7,58.0,30.09,SSE,160,3.0,7.0,49,0.00,,,0.00,weatherlink.com 1.10,2013-07-13 16:07:00,
2013-07-13 11:22:00,79.1,59.0,30.08,East,97,5.0,9.0,51,0.00,,,0.00,weatherlink.com 1.10,2013-07-13 16:22:00,
2013-07-13 11:30:00,78.8,59.2,30.08,SE,135,3.0,8.0,51,0.00,,BKN250,0.00,VWS V14.01,2013-07-13 16:30:00,
2013-07-13 11:37:00,78.5,59.0,30.08,East,92,10.0,10.0,52,0.00,,,0.00,weatherlink.com 1.10,2013-07-13 16:37:00,
2013-07-13 11:52:00,78.6,60.0,30.08,SSW,205,4.0,10.0,53,0.00,,,0.00,weatherlink.com 1.10,2013-07-13 16:52:00,
2013-07-13 12:00:00,79.1,60.5,30.08,ESE,112,5.0,13.0,53,0.00,,BKN250,0.00,VWS V14.01,2013-07-13 17:00:00,
2013-07-13 12:07:00,79.3,62.0,30.08,East,84,6.0,6.0,55,0.00,,,0.00,weatherlink.com 1.10,2013-07-13 17:07:00,
2013-07-13 12:22:00,79.9,61.0,30.08,ESE,113,4.0,11.0,53,0.00,,,0.00,weatherlink.com 1.10,2013-07-13 17:22:00,
2013-07-13 12:30:00,79.3,60.2,30.08,ESE,112,3.0,12.0,52,0.00,,BKN250,0.00,VWS V14.01,2013-07-13 17:30:00,
2013-07-13 12:37:00,79.6,61.0,30.08,SE,125,3.0,7.0,53,0.00,,,0.00,weatherlink.com 1.10,2013-07-13 17:37:00,
2013-07-13 12:52:00,79.7,59.0,30.08,ESE,122,5.0,9.0,50,0.00,,,0.00,weatherlink.com 1.10,2013-07-13 17:52:00,
2013-07-13 13:00:00,79.7,59.4,30.08,East,90,4.0,10.0,50,0.00,,BKN250,0.00,VWS V14.01,2013-07-13 18:00:00,
2013-07-13 13:07:00,80.1,62.0,30.07,SE,126,5.0,11.0,54,0.00,,,0.00,weatherlink.com 1.10,2013-07-13 18:07:00,
2013-07-13 13:22:00,80.6,60.0,30.07,ESE,118,1.0,6.0,50,0.00,,,0.00,weatherlink.com 1.10,2013-07-13 18:22:00,
2013-07-13 13:30:00,80.8,60.4,30.07,SE,135,4.0,11.0,50,0.00,,BKN250,0.00,VWS V14.01,2013-07-13 18:30:00,
2013-07-13 13:37:00,80.7,60.0,30.07,SE,129,3.0,9.0,49,0.00,,,0.00,weatherlink.com 1.10,2013-07-13 18:37:00,
2013-07-13 13:52:00,80.9,59.0,30.07,ESE,120,9.0,14.0,48,0.00,,,0.00,weatherlink.com 1.10,2013-07-13 18:52:00,
2013-07-13 14:00:00,81.1,59.6,30.07,ESE,112,5.0,14.0,48,0.00,,BKN250,0.00,VWS V14.01,2013-07-13 19:00:00,
2013-07-13 14:07:00,81.6,61.0,30.06,East,86,7.0,9.0,49,0.00,,,0.00,weatherlink.com 1.10,2013-07-13 19:07:00,
2013-07-13 14:22:00,81.6,61.0,30.06,ESE,102,5.0,13.0,49,0.00,,,0.00,weatherlink.com 1.10,2013-07-13 19:22:00,
2013-07-13 14:30:00,81.4,60.4,30.06,ESE,112,5.0,13.0,49,0.00,,BKN250,0.00,VWS V14.01,2013-07-13 19:30:00,
2013-07-13 14:37:00,81.6,59.0,30.06,East,86,2.0,10.0,47,0.00,,,0.00,weatherlink.com 1.10,2013-07-13 19:37:00,
2013-07-13 14:52:00,82.2,61.0,30.06,SE,133,3.0,8.0,48,0.00,,,0.00,weatherlink.com 1.10,2013-07-13 19:52:00,
2013-07-13 15:00:00,82.5,60.3,30.06,ESE,112,4.0,11.0,47,0.00,,BKN250,0.00,VWS V14.01,2013-07-13 20:00:00,
2013-07-13 15:07:00,82.6,61.0,30.05,ENE,67,5.0,9.0,48,0.00,,,0.00,weatherlink.com 1.10,2013-07-13 20:07:00,
2013-07-13 15:22:00,82.5,60.0,30.06,SE,124,4.0,10.0,46,0.00,,,0.00,weatherlink.com 1.10,2013-07-13 20:22:00,
2013-07-13 15:30:00,83.1,59.6,30.05,SE,135,4.0,11.0,45,0.00,,BKN250,0.00,VWS V14.01,2013-07-13 20:30:00,
2013-07-13 15:37:00,83.0,60.0,30.05,ENE,61,3.0,7.0,45,0.00,,,0.00,weatherlink.com 1.10,2013-07-13 20:37:00,
2013-07-13 15:52:00,83.0,59.0,30.05,ENE,77,2.0,9.0,44,0.00,,,0.00,weatherlink.com 1.10,2013-07-13 20:52:00,
2013-07-13 16:00:00,82.8,59.3,30.05,East,90,3.0,7.0,45,0.00,,BKN250,0.00,VWS V14.01,2013-07-13 21:00:00,
2013-07-13 16:07:00,83.3,60.0,30.04,SE,142,5.0,8.0,45,0.00,,,0.00,weatherlink.com 1.10,2013-07-13 21:07:00,
2013-07-13 16:22:00,83.0,60.0,30.04,East,99,1.0,7.0,45,0.00,,,0.00,weatherlink.com 1.10,2013-07-13 21:22:00,
2013-07-13 16:30:00,83.5,58.7,30.04,ESE,112,3.0,8.0,43,0.00,,BKN250,0.00,VWS V14.01,2013-07-13 21:30:00,
2013-07-13 16:37:00,83.7,60.0,30.04,ESE,115,2.0,5.0,44,0.00,,,0.00,weatherlink.com 1.10,2013-07-13 21:37:00,
2013-07-13 16:52:00,83.7,61.0,30.04,SE,132,3.0,8.0,46,0.00,,,0.00,weatherlink.com 1.10,2013-07-13 21:52:00,
2013-07-13 17:00:00,83.8,60.2,30.04,ESE,112,3.0,8.0,45,0.00,,BKN250,0.00,VWS V14.01,2013-07-13 22:00:00,
2013-07-13 17:07:00,83.5,59.0,30.04,East,85,3.0,11.0,43,0.00,,,0.00,weatherlink.com 1.10,2013-07-13 22:07:00,
2013-07-13 17:22:00,83.1,59.0,30.04,East,83,6.0,8.0,44,0.00,,,0.00,weatherlink.com 1.10,2013-07-13 22:22:00,
2013-07-13 17:30:00,83.0,60.1,30.04,ESE,112,5.0,11.0,46,0.00,,BKN250,0.00,VWS V14.01,2013-07-13 22:30:00,
2013-07-13 17:37:00,83.2,60.0,30.04,ESE,115,4.0,7.0,45,0.00,,,0.00,weatherlink.com 1.10,2013-07-13 22:37:00,
2013-07-13 17:52:00,83.1,60.0,30.04,East,97,6.0,7.0,46,0.00,,,0.00,weatherlink.com 1.10,2013-07-13 22:52:00,
2013-07-13 18:00:00,82.9,60.6,30.03,ESE,112,3.0,9.0,47,0.00,,BKN250,0.00,VWS V14.01,2013-07-13 23:00:00,
2013-07-13 18:07:00,82.6,61.0,30.03,ESE,116,4.0,7.0,48,0.00,,,0.00,weatherlink.com 1.10,2013-07-13 23:07:00,
2013-07-13 18:22:00,81.2,61.0,30.03,East,85,7.0,10.0,51,0.00,,,0.00,weatherlink.com 1.10,2013-07-13 23:22:00,
2013-07-13 18:30:00,80.9,61.6,30.03,East,90,5.0,13.0,52,0.00,,BKN250,0.00,VWS V14.01,2013-07-13 23:30:00,
2013-07-13 18:37:00,80.6,61.0,30.03,NE,51,3.0,10.0,52,0.00,,,0.00,weatherlink.com 1.10,2013-07-13 23:37:00,
2013-07-13 18:52:00,80.2,63.0,30.04,ESE,115,4.0,6.0,55,0.00,,,0.00,weatherlink.com 1.10,2013-07-13 23:52:00,
2013-07-13 19:00:00,79.9,62.8,30.04,East,90,4.0,11.0,56,0.00,,BKN250,0.00,VWS V14.01,2013-07-14 00:00:00,
2013-07-13 19:07:00,79.5,62.0,30.04,ENE,77,2.0,8.0,56,0.00,,,0.00,weatherlink.com 1.10,2013-07-14 00:07:00,
2013-07-13 19:22:00,78.7,63.0,30.04,ESE,106,3.0,9.0,58,0.00,,,0.00,weatherlink.com 1.10,2013-07-14 00:22:00,
2013-07-13 19:30:00,78.3,62.8,30.03,East,90,5.0,10.0,59,0.00,,BKN250,0.00,VWS V14.01,2013-07-14 00:30:00,
2013-07-13 19:37:00,77.9,63.0,30.04,East,92,5.0,7.0,60,0.00,,,0.00,weatherlink.com 1.10,2013-07-14 00:37:00,
2013-07-13 19:52:00,77.1,63.0,30.04,East,88,2.0,5.0,62,0.00,,,0.00,weatherlink.com 1.10,2013-07-14 00:52:00,
2013-07-13 20:00:00,76.4,63.3,30.04,East,90,3.0,8.0,64,0.00,,BKN250,0.00,VWS V14.01,2013-07-14 01:00:00,
2013-07-13 20:07:00,75.5,63.0,30.04,East,82,3.0,3.0,66,0.00,,,0.00,weatherlink.com 1.10,2013-07-14 01:07:00,
2013-07-13 20:22:00,74.0,63.0,30.05,East,89,2.0,3.0,69,0.00,,,0.00,weatherlink.com 1.10,2013-07-14 01:22:00,
2013-07-13 20:30:00,73.5,63.1,30.05,East,90,2.0,5.0,70,0.00,,BKN250,0.00,VWS V14.01,2013-07-14 01:30:00,
2013-07-13 20:37:00,73.1,63.0,30.05,East,89,3.0,3.0,71,0.00,,,0.00,weatherlink.com 1.10,2013-07-14 01:37:00,
2013-07-13 20:52:00,71.9,63.0,30.06,East,89,1.0,5.0,74,0.00,,,0.00,weatherlink.com 1.10,2013-07-14 01:52:00,
2013-07-13 21:00:00,71.3,63.0,30.06,East,90,2.0,5.0,75,0.00,,BKN250,0.00,VWS V14.01,2013-07-14 02:00:00,
2013-07-13 21:07:00,71.0,63.0,30.06,East,98,3.0,5.0,76,0.00,,,0.00,weatherlink.com 1.10,2013-07-14 02:07:00,
2013-07-13 21:22:00,71.0,63.0,30.07,ESE,106,3.0,5.0,76,0.00,,,0.00,weatherlink.com 1.10,2013-07-14 02:22:00,
2013-07-13 21:30:00,71.0,63.1,30.07,East,90,2.0,6.0,76,0.00,,BKN250,0.00,VWS V14.01,2013-07-14 02:30:00,
2013-07-13 21:37:00,70.9,63.0,30.08,ESE,103,3.0,4.0,76,0.00,,,0.00,weatherlink.com 1.10,2013-07-14 02:37:00,
2013-07-13 21:52:00,70.2,63.0,30.07,East,86,1.0,4.0,77,0.00,,,0.00,weatherlink.com 1.10,2013-07-14 02:52:00,
2013-07-13 22:00:00,69.7,62.5,30.08,East,90,2.0,5.0,78,0.00,,BKN250,0.00,VWS V14.01,2013-07-14 03:00:00,
2013-07-13 22:07:00,69.4,63.0,30.08,East,96,2.0,3.0,79,0.00,,,0.00,weatherlink.com 1.10,2013-07-14 03:07:00,
2013-07-13 22:22:00,68.7,63.0,30.08,East,92,5.0,5.0,81,0.00,,,0.00,weatherlink.com 1.10,2013-07-14 03:22:00,
2013-07-13 22:30:00,68.3,62.6,30.08,East,90,2.0,5.0,82,0.00,,BKN250,0.00,VWS V14.01,2013-07-14 03:30:00,
2013-07-13 22:37:00,68.0,62.0,30.08,ESE,114,0.0,3.0,82,0.00,,,0.00,weatherlink.com 1.10,2013-07-14 03:37:00,
2013-07-13 22:52:00,67.3,62.0,30.08,East,99,1.0,2.0,83,0.00,,,0.00,weatherlink.com 1.10,2013-07-14 03:52:00,
2013-07-13 23:00:00,67.0,62.0,30.08,East,90,1.0,5.0,84,0.00,,BKN250,0.00,VWS V14.01,2013-07-14 04:00:00,
2013-07-13 23:07:00,66.8,62.0,30.08,ESE,116,2.0,5.0,84,0.00,,,0.00,weatherlink.com 1.10,2013-07-14 04:07:00,
2013-07-13 23:22:00,66.9,62.0,30.09,ESE,117,0.0,4.0,83,0.00,,,0.00,weatherlink.com 1.10,2013-07-14 04:22:00,
2013-07-13 23:30:00,66.7,61.7,30.09,ESE,112,2.0,6.0,84,0.00,,BKN250,0.00,VWS V14.01,2013-07-14 04:30:00,
2013-07-13 23:37:00,66.4,62.0,30.09,East,96,0.0,2.0,84,0.00,,,0.00,weatherlink.com 1.10,2013-07-14 04:37:00,
2013-07-13 23:52:00,66.2,61.0,30.08,ENE,73,0.0,1.0,84,0.00,,,0.00,weatherlink.com 1.10,2013-07-14 04:52:00,